createdAt,value
2023-01-26T00:00:10.592Z,76.53
2023-01-26T00:03:00.727Z,70.10
2023-01-26T00:05:29.095Z,67.80
2023-01-26T00:07:59.018Z,61.60
2023-01-26T00:10:27.467Z,67.77
2023-01-26T00:12:56.090Z,63.03
2023-01-26T00:15:24.589Z,63.47
2023-01-26T00:17:53.589Z,66.93
2023-01-26T00:20:23.288Z,67.07
2023-01-26T00:22:51.973Z,58.17
2023-01-26T00:25:20.609Z,62.27
2023-01-26T00:27:49.592Z,68.10
2023-01-26T00:30:18.209Z,64.53
2023-01-26T00:32:46.802Z,69.50
2023-01-26T00:35:15.189Z,69.03
2023-01-26T00:37:45.247Z,62.87
2023-01-26T00:40:16.731Z,60.27
2023-01-26T00:42:45.593Z,63.10
2023-01-26T00:45:13.909Z,67.03
2023-01-26T00:47:44.778Z,60.23
2023-01-26T00:50:13.301Z,54.13
2023-01-26T00:52:42.144Z,62.60
2023-01-26T00:55:11.991Z,65.13
2023-01-26T00:57:42.619Z,69.83
2023-01-26T01:00:15.032Z,64.90
2023-01-26T01:02:45.240Z,63.00
2023-01-26T01:05:13.619Z,64.77
2023-01-26T01:07:42.281Z,62.03
2023-01-26T01:10:12.866Z,68.70
2023-01-26T01:12:41.919Z,60.30
2023-01-26T01:15:10.951Z,60.50
2023-01-26T01:17:41.074Z,64.53
2023-01-26T01:20:12.886Z,71.07
2023-01-26T01:22:43.226Z,71.70
2023-01-26T01:25:13.993Z,63.03
2023-01-26T01:27:42.726Z,67.13
2023-01-26T01:30:12.952Z,64.83
2023-01-26T01:32:41.965Z,63.83
2023-01-26T01:35:10.735Z,62.17
2023-01-26T01:37:39.344Z,64.23
2023-01-26T01:40:12.519Z,67.63
2023-01-26T01:42:49.009Z,59.67
2023-01-26T01:45:40.581Z,70.17
2023-01-26T01:48:18.852Z,58.57
2023-01-26T01:50:47.653Z,68.00
2023-01-26T01:53:25.122Z,59.60
2023-01-26T01:55:59.175Z,57.27
2023-01-26T01:58:31.046Z,63.37
2023-01-26T02:00:59.969Z,64.73
2023-01-26T02:03:32.099Z,66.27
2023-01-26T02:06:06.064Z,60.73
2023-01-26T02:08:39.474Z,51.47
2023-01-26T02:11:10.401Z,64.00
2023-01-26T02:13:42.045Z,61.77
2023-01-26T02:16:10.501Z,56.40
2023-01-26T02:18:40.165Z,62.20
2023-01-26T02:21:10.837Z,62.03
2023-01-26T02:23:50.938Z,54.47
2023-01-26T02:26:23.621Z,54.67
2023-01-26T02:28:54.322Z,59.37
2023-01-26T02:31:24.548Z,56.73
2023-01-26T02:33:53.403Z,53.30
2023-01-26T02:36:25.194Z,53.77
2023-01-26T02:39:03.786Z,49.13
2023-01-26T02:41:51.374Z,54.67
2023-01-26T02:44:20.886Z,57.07
2023-01-26T02:46:49.235Z,54.47
2023-01-26T02:49:36.273Z,54.30
2023-01-26T02:52:06.910Z,61.13
2023-01-26T02:54:53.820Z,54.53
2023-01-26T02:57:23.828Z,60.27
2023-01-26T02:59:53.825Z,61.20
2023-01-26T03:02:22.760Z,61.67
2023-01-26T03:04:51.576Z,59.47
2023-01-26T03:07:21.314Z,56.27
2023-01-26T03:09:50.017Z,56.03
2023-01-26T03:12:18.547Z,65.60
2023-01-26T03:15:10.363Z,53.60
2023-01-26T03:17:38.956Z,58.60
2023-01-26T03:20:27.269Z,50.73
2023-01-26T03:23:13.412Z,58.17
2023-01-26T03:26:00.184Z,50.47
2023-01-26T03:28:30.332Z,50.03
2023-01-26T03:31:00.656Z,48.43
2023-01-26T03:33:31.660Z,51.23
2023-01-26T03:36:01.344Z,52.73
2023-01-26T03:38:31.152Z,59.00
2023-01-26T03:41:17.479Z,54.00
2023-01-26T03:44:03.256Z,54.10
2023-01-26T03:46:51.076Z,53.30
2023-01-26T03:49:36.678Z,55.10
2023-01-26T03:52:23.523Z,56.00
2023-01-26T03:55:09.853Z,58.77
2023-01-26T03:57:38.527Z,54.10
2023-01-26T04:00:08.205Z,56.37
2023-01-26T04:02:59.987Z,54.50
2023-01-26T04:05:46.066Z,52.93
2023-01-26T04:08:27.113Z,50.53
2023-01-26T04:11:01.159Z,52.70
2023-01-26T04:13:47.032Z,50.33
2023-01-26T04:16:40.073Z,55.67
2023-01-26T04:19:27.668Z,53.83
2023-01-26T04:21:56.384Z,48.23
2023-01-26T04:24:25.533Z,50.50
2023-01-26T04:26:57.553Z,54.53
2023-01-26T04:29:34.797Z,50.27
2023-01-26T04:32:03.259Z,58.53
2023-01-26T04:34:35.762Z,61.30
2023-01-26T04:37:10.603Z,49.33
2023-01-26T04:39:46.344Z,51.17
2023-01-26T04:42:14.757Z,55.47
2023-01-26T04:44:43.414Z,54.33
2023-01-26T04:47:11.996Z,48.73
2023-01-26T04:49:42.030Z,46.87
2023-01-26T04:52:10.491Z,43.67
2023-01-26T04:54:39.188Z,46.80
2023-01-26T04:57:08.742Z,41.47
2023-01-26T04:59:38.516Z,48.03
2023-01-26T05:02:06.839Z,44.43
2023-01-26T05:04:35.996Z,47.97
2023-01-26T05:07:06.643Z,56.70
2023-01-26T05:09:35.660Z,57.27
2023-01-26T05:12:37.337Z,49.53
2023-01-26T05:15:24.522Z,47.53
2023-01-26T05:18:10.870Z,53.13
2023-01-26T05:21:05.854Z,47.93
2023-01-26T05:23:42.159Z,52.20
2023-01-26T05:26:37.227Z,47.10
2023-01-26T05:29:09.710Z,49.73
2023-01-26T05:31:38.341Z,48.17
2023-01-26T05:34:07.629Z,52.40
2023-01-26T05:36:38.167Z,47.67
2023-01-26T05:39:09.232Z,48.53
2023-01-26T05:41:37.858Z,50.07
2023-01-26T05:44:25.778Z,54.00
2023-01-26T05:47:08.161Z,50.97
2023-01-26T05:49:38.704Z,52.13
2023-01-26T05:52:10.681Z,54.60
2023-01-26T05:54:42.495Z,55.73
2023-01-26T05:57:12.677Z,52.83
2023-01-26T05:59:46.099Z,54.30
2023-01-26T06:02:14.869Z,57.20
2023-01-26T06:04:46.188Z,53.63
2023-01-26T06:07:15.268Z,51.77
2023-01-26T06:10:05.901Z,62.40
2023-01-26T06:12:53.171Z,55.70
2023-01-26T06:15:47.556Z,55.17
2023-01-26T06:18:16.861Z,59.20
2023-01-26T06:20:51.639Z,67.27
2023-01-26T06:23:20.385Z,52.70
2023-01-26T06:25:51.806Z,60.63
2023-01-26T06:28:21.608Z,52.83
2023-01-26T06:30:50.484Z,52.23
2023-01-26T06:33:19.736Z,51.93
2023-01-26T06:35:48.196Z,60.63
2023-01-26T06:38:17.035Z,54.20
2023-01-26T06:40:46.248Z,49.97
2023-01-26T06:43:17.473Z,52.77
2023-01-26T06:45:47.522Z,58.27
2023-01-26T06:48:17.409Z,54.53
2023-01-26T06:50:46.497Z,50.90
2023-01-26T06:53:27.820Z,53.63
2023-01-26T06:56:16.501Z,45.23
2023-01-26T06:59:07.149Z,46.37
2023-01-26T07:02:04.736Z,53.53
2023-01-26T07:04:34.172Z,50.23
2023-01-26T07:07:02.536Z,51.37
2023-01-26T07:09:31.239Z,48.77
2023-01-26T07:11:59.636Z,44.00
2023-01-26T07:14:29.727Z,48.67
2023-01-26T07:16:58.100Z,46.73
2023-01-26T07:19:26.728Z,48.70
2023-01-26T07:21:55.017Z,41.67
2023-01-26T07:24:23.741Z,46.73
2023-01-26T07:26:52.562Z,39.40
2023-01-26T07:29:21.268Z,38.23
2023-01-26T07:31:51.102Z,44.50
2023-01-26T07:34:19.757Z,43.50
2023-01-26T07:36:48.097Z,46.73
2023-01-26T07:39:16.767Z,46.47
2023-01-26T07:41:45.255Z,40.67
2023-01-26T07:44:32.617Z,42.90
2023-01-26T07:47:02.421Z,47.70
2023-01-26T07:49:31.935Z,50.07
2023-01-26T07:52:00.371Z,44.10
2023-01-26T07:54:29.079Z,46.83
2023-01-26T07:56:57.459Z,46.17
2023-01-26T07:59:26.140Z,42.67
2023-01-26T08:01:54.788Z,47.07
2023-01-26T08:04:24.824Z,47.50
2023-01-26T08:06:53.714Z,43.17
2023-01-26T08:09:22.729Z,40.93
2023-01-26T08:11:51.332Z,46.30
2023-01-26T08:14:19.917Z,41.87
2023-01-26T08:16:48.718Z,50.20
2023-01-26T08:19:17.636Z,37.07
2023-01-26T08:21:47.385Z,36.90
2023-01-26T08:24:16.371Z,44.57
2023-01-26T08:26:44.854Z,37.07
2023-01-26T08:29:13.891Z,42.50
2023-01-26T08:31:42.238Z,39.60
2023-01-26T08:34:11.114Z,39.37
2023-01-26T08:36:40.726Z,30.33
2023-01-26T08:39:11.136Z,33.53
2023-01-26T08:41:39.957Z,34.73
2023-01-26T08:44:10.427Z,33.87
2023-01-26T08:46:38.888Z,39.73
2023-01-26T08:49:07.701Z,29.30
2023-01-26T08:51:36.105Z,30.33
2023-01-26T08:54:08.178Z,28.87
2023-01-26T08:56:38.039Z,30.87
2023-01-26T08:59:06.758Z,34.40
2023-01-26T09:01:35.139Z,35.43
2023-01-26T09:04:04.132Z,28.37
2023-01-26T09:06:33.145Z,29.63
2023-01-26T09:09:01.829Z,38.67
2023-01-26T09:11:30.215Z,36.53
2023-01-26T09:14:00.164Z,34.47
2023-01-26T09:16:28.543Z,34.90
2023-01-26T09:18:57.278Z,40.73
2023-01-26T09:21:26.073Z,34.30
2023-01-26T09:23:57.350Z,37.67
2023-01-26T09:26:25.875Z,36.63
2023-01-26T09:28:54.695Z,32.83
2023-01-26T09:31:24.656Z,36.13
2023-01-26T09:33:53.586Z,38.13
2023-01-26T09:36:22.020Z,33.30
2023-01-26T09:38:51.207Z,35.80
2023-01-26T09:41:33.664Z,32.03
2023-01-26T09:44:09.033Z,30.77
2023-01-26T09:46:50.369Z,33.70
2023-01-26T09:49:23.375Z,34.50
2023-01-26T09:52:00.646Z,37.00
2023-01-26T09:54:36.101Z,31.70
2023-01-26T09:57:13.375Z,34.00
2023-01-26T09:59:47.276Z,31.93
2023-01-26T10:02:30.882Z,34.07
2023-01-26T10:05:04.305Z,32.97
2023-01-26T10:07:32.914Z,33.53
2023-01-26T10:10:01.706Z,31.30
2023-01-26T10:12:32.929Z,37.13
2023-01-26T10:15:08.284Z,30.17
2023-01-26T10:17:41.900Z,30.17
2023-01-26T10:20:26.150Z,28.93
2023-01-26T10:22:56.802Z,27.53
2023-01-26T10:25:31.155Z,31.83
2023-01-26T10:27:59.653Z,38.67
2023-01-26T10:30:28.292Z,27.30
2023-01-26T10:32:58.397Z,29.73
2023-01-26T10:35:27.455Z,30.47
2023-01-26T10:37:56.324Z,29.57
2023-01-26T10:40:25.673Z,27.37
2023-01-26T10:42:58.749Z,29.17
2023-01-26T10:45:32.656Z,27.73
2023-01-26T10:48:07.899Z,37.80
2023-01-26T10:50:36.888Z,31.10
2023-01-26T10:53:06.615Z,33.27
2023-01-26T10:55:37.299Z,28.43
2023-01-26T10:58:05.752Z,34.17
2023-01-26T11:00:36.537Z,31.20
2023-01-26T11:03:18.513Z,33.40
2023-01-26T11:05:48.184Z,31.27
2023-01-26T11:08:32.821Z,33.03
2023-01-26T11:11:03.495Z,30.73
2023-01-26T11:13:32.000Z,33.47
2023-01-26T11:16:13.159Z,34.40
2023-01-26T11:18:56.822Z,34.23
2023-01-26T11:21:32.052Z,33.93
2023-01-26T11:24:06.291Z,30.50
2023-01-26T11:27:04.929Z,33.87
2023-01-26T11:29:48.596Z,29.33
2023-01-26T11:32:24.387Z,30.77
2023-01-26T11:35:06.419Z,32.00
2023-01-26T11:37:42.994Z,34.87
2023-01-26T11:40:27.482Z,33.30
2023-01-26T11:43:32.682Z,34.40
2023-01-26T11:46:24.202Z,31.53
2023-01-26T11:49:04.026Z,28.33
2023-01-26T11:51:48.702Z,31.17
2023-01-26T11:54:41.556Z,28.53
2023-01-26T11:57:21.814Z,27.63
2023-01-26T11:59:55.753Z,35.90
2023-01-26T12:02:31.338Z,34.13
2023-01-26T12:05:06.011Z,28.17
2023-01-26T12:07:54.484Z,30.00
2023-01-26T12:10:29.152Z,24.50
2023-01-26T12:13:02.191Z,32.43
2023-01-26T12:15:36.048Z,30.50
2023-01-26T12:18:15.347Z,27.13
2023-01-26T12:20:46.808Z,31.50
2023-01-26T12:23:28.612Z,30.27
2023-01-26T12:25:59.771Z,31.57
2023-01-26T12:28:32.610Z,29.50
2023-01-26T12:31:09.107Z,31.70
2023-01-26T12:33:38.791Z,32.37
2023-01-26T12:36:19.222Z,29.23
2023-01-26T12:39:04.541Z,28.50
2023-01-26T12:41:42.284Z,30.27
2023-01-26T12:44:26.461Z,31.83
2023-01-26T12:47:01.035Z,31.77
2023-01-26T12:49:35.203Z,30.13
2023-01-26T12:52:08.864Z,32.03
2023-01-26T12:54:45.441Z,31.10
2023-01-26T12:57:18.596Z,32.47
2023-01-26T12:59:49.161Z,32.57
2023-01-26T13:02:29.677Z,33.80
2023-01-26T13:04:59.735Z,34.77
2023-01-26T13:07:31.439Z,35.87
2023-01-26T13:10:24.110Z,35.57
2023-01-26T13:12:55.191Z,34.07
2023-01-26T13:15:25.108Z,32.80
2023-01-26T13:17:56.463Z,35.53
2023-01-26T13:20:42.037Z,31.80
2023-01-26T13:23:40.302Z,34.47
2023-01-26T13:26:22.400Z,31.97
2023-01-26T13:28:51.127Z,35.00
2023-01-26T13:31:35.617Z,29.83
2023-01-26T13:34:09.617Z,34.43
2023-01-26T13:36:43.418Z,27.23
2023-01-26T13:39:18.226Z,29.70
2023-01-26T13:41:49.142Z,34.57
2023-01-26T13:44:22.824Z,32.77
2023-01-26T13:46:55.812Z,34.77
2023-01-26T13:49:26.709Z,35.57
2023-01-26T13:51:55.531Z,32.27
2023-01-26T13:54:26.734Z,33.77
2023-01-26T13:57:04.863Z,41.97
2023-01-26T13:59:34.454Z,33.90
2023-01-26T14:02:03.129Z,34.47
2023-01-26T14:04:35.018Z,33.67
2023-01-26T14:07:07.792Z,41.27
2023-01-26T14:09:46.338Z,38.93
2023-01-26T14:12:23.694Z,31.80
2023-01-26T14:14:56.431Z,31.00
2023-01-26T14:17:30.096Z,40.83
2023-01-26T14:20:01.017Z,38.57
2023-01-26T14:22:29.668Z,36.47
2023-01-26T14:24:58.398Z,39.03
2023-01-26T14:27:36.657Z,40.53
2023-01-26T14:30:20.972Z,38.53
2023-01-26T14:32:50.036Z,41.30
2023-01-26T14:35:23.086Z,45.90
2023-01-26T14:37:52.035Z,43.63
2023-01-26T14:40:23.095Z,39.50
2023-01-26T14:42:54.738Z,40.33
2023-01-26T14:45:31.535Z,39.97
2023-01-26T14:48:04.192Z,40.27
2023-01-26T14:50:33.362Z,39.33
2023-01-26T14:53:04.121Z,40.07
2023-01-26T14:55:36.165Z,40.83
2023-01-26T14:58:16.800Z,43.87
2023-01-26T15:00:49.203Z,46.60
2023-01-26T15:03:28.193Z,47.93
2023-01-26T15:06:08.264Z,46.30
2023-01-26T15:08:37.568Z,40.77
2023-01-26T15:11:23.971Z,45.90
2023-01-26T15:13:56.489Z,44.00
2023-01-26T15:16:27.029Z,47.20
2023-01-26T15:19:02.974Z,48.67
2023-01-26T15:21:34.878Z,51.17
2023-01-26T15:24:05.608Z,44.83
2023-01-26T15:26:36.361Z,43.57
2023-01-26T15:29:16.597Z,47.63
2023-01-26T15:31:45.399Z,52.93
2023-01-26T15:34:32.415Z,52.80
2023-01-26T15:37:01.738Z,48.20
2023-01-26T15:39:30.346Z,48.00
2023-01-26T15:42:08.557Z,46.87
2023-01-26T15:44:38.273Z,44.77
2023-01-26T15:47:10.187Z,44.47
2023-01-26T15:49:38.712Z,46.57
2023-01-26T15:52:14.659Z,49.50
2023-01-26T15:54:43.299Z,42.30
2023-01-26T15:57:12.858Z,46.20
2023-01-26T15:59:42.674Z,43.03
2023-01-26T16:02:15.202Z,41.37
2023-01-26T16:04:44.935Z,46.60
2023-01-26T16:07:14.844Z,37.50
2023-01-26T16:09:43.747Z,39.53
2023-01-26T16:12:30.410Z,40.57
2023-01-26T16:15:01.744Z,36.97
2023-01-26T16:17:30.833Z,40.37
2023-01-26T16:20:00.240Z,26.67
2023-01-26T16:22:28.940Z,36.37
2023-01-26T16:24:57.335Z,43.70
2023-01-26T16:27:25.985Z,49.77
2023-01-26T16:29:54.331Z,34.93
2023-01-26T16:32:29.126Z,35.73
2023-01-26T16:34:57.490Z,36.63
2023-01-26T16:37:26.262Z,38.10
2023-01-26T16:39:54.630Z,39.47
2023-01-26T16:42:23.375Z,42.37
2023-01-26T16:44:51.918Z,35.73
2023-01-26T16:47:20.575Z,37.43
2023-01-26T16:49:50.420Z,37.97
2023-01-26T16:52:19.084Z,32.73
2023-01-26T16:54:48.323Z,43.33
2023-01-26T16:57:17.370Z,36.57
2023-01-26T16:59:45.884Z,41.37
2023-01-26T17:02:25.921Z,37.43
2023-01-26T17:04:55.929Z,38.00
2023-01-26T17:07:24.897Z,39.43
2023-01-26T17:09:53.267Z,37.43
2023-01-26T17:12:22.032Z,33.53
2023-01-26T17:14:50.559Z,35.10
2023-01-26T17:17:19.182Z,41.70
2023-01-26T17:19:47.795Z,34.77
2023-01-26T17:22:18.604Z,41.60
2023-01-26T17:24:46.945Z,48.13
2023-01-26T17:27:15.793Z,39.67
2023-01-26T17:29:44.968Z,34.23
2023-01-26T17:32:13.666Z,37.63
2023-01-26T17:34:42.045Z,33.27
2023-01-26T17:37:10.845Z,32.63
2023-01-26T17:39:40.528Z,31.90
2023-01-26T17:42:09.381Z,32.17
2023-01-26T17:44:37.980Z,34.93
2023-01-26T17:47:06.835Z,31.23
2023-01-26T17:49:35.211Z,33.90
2023-01-26T17:52:04.334Z,37.80
2023-01-26T17:54:32.977Z,35.93
2023-01-26T17:57:02.968Z,36.83
2023-01-26T17:59:31.331Z,38.80
2023-01-26T18:02:00.192Z,34.60
2023-01-26T18:04:31.273Z,43.30
2023-01-26T18:07:01.801Z,40.37
2023-01-26T18:09:30.464Z,37.97
2023-01-26T18:11:59.422Z,38.00
2023-01-26T18:14:29.254Z,35.43
2023-01-26T18:16:57.813Z,38.47
2023-01-26T18:19:26.234Z,40.63
2023-01-26T18:21:54.929Z,38.63
2023-01-26T18:24:23.263Z,36.57
2023-01-26T18:26:52.354Z,44.67
2023-01-26T18:29:20.734Z,39.67
2023-01-26T18:31:51.134Z,45.60
2023-01-26T18:34:19.605Z,35.90
2023-01-26T18:36:48.458Z,42.40
2023-01-26T18:39:18.573Z,43.93
2023-01-26T18:41:47.262Z,43.27
2023-01-26T18:44:15.636Z,41.37
2023-01-26T18:46:44.322Z,39.27
2023-01-26T18:49:14.167Z,41.57
2023-01-26T18:51:47.842Z,39.50
2023-01-26T18:54:16.837Z,37.57
2023-01-26T18:56:45.822Z,41.90
2023-01-26T18:59:14.560Z,37.43
2023-01-26T19:01:44.229Z,38.33
2023-01-26T19:04:15.990Z,38.30
2023-01-26T19:06:46.701Z,33.77
2023-01-26T19:09:15.539Z,42.37
2023-01-26T19:11:44.274Z,39.97
2023-01-26T19:14:12.725Z,35.80
2023-01-26T19:16:42.481Z,35.87
2023-01-26T19:19:13.116Z,34.63
2023-01-26T19:21:41.773Z,37.83
2023-01-26T19:24:10.524Z,37.33
2023-01-26T19:26:39.436Z,46.13
2023-01-26T19:29:07.909Z,37.83
2023-01-26T19:34:43.968Z,33.77
2023-01-26T19:37:12.752Z,35.80
2023-01-26T19:39:41.105Z,37.43
2023-01-26T19:42:09.812Z,41.60
2023-01-26T19:47:24.387Z,33.93
2023-01-26T19:49:54.215Z,43.60
2023-01-26T19:52:22.906Z,39.13
2023-01-26T19:54:51.280Z,36.83
2023-01-26T19:57:20.227Z,40.87
2023-01-26T19:59:48.985Z,41.93
2023-01-26T20:02:17.868Z,41.07
2023-01-26T20:04:46.490Z,36.00
2023-01-26T20:07:16.694Z,43.17
2023-01-26T20:09:45.150Z,40.30
2023-01-26T20:12:13.777Z,43.73
2023-01-26T20:14:42.306Z,44.97
2023-01-26T20:17:11.132Z,43.10
2023-01-26T20:19:39.540Z,43.47
2023-01-26T20:22:08.849Z,45.47
2023-01-26T20:24:40.245Z,44.50
2023-01-26T20:27:09.920Z,40.53
2023-01-26T20:29:38.529Z,43.20
2023-01-26T20:32:07.216Z,47.10
2023-01-26T20:34:36.219Z,45.70
2023-01-26T20:37:04.953Z,55.17
2023-01-26T20:39:34.297Z,54.17
2023-01-26T20:42:05.444Z,43.30
2023-01-26T20:44:34.649Z,46.83
2023-01-26T20:47:04.412Z,47.87
2023-01-26T20:49:33.292Z,47.27
2023-01-26T20:52:07.656Z,48.47
2023-01-26T20:54:36.755Z,41.63
2023-01-26T20:57:09.085Z,44.57
2023-01-26T20:59:37.501Z,52.70
2023-01-26T21:02:06.280Z,53.13
2023-01-26T21:04:34.647Z,51.47
2023-01-26T21:07:03.335Z,53.60
2023-01-26T21:09:32.239Z,44.63
2023-01-26T21:12:01.401Z,48.70
2023-01-26T21:14:31.165Z,49.43
2023-01-26T21:17:00.759Z,47.10
2023-01-26T21:19:29.541Z,44.43
2023-01-26T21:22:01.111Z,47.87
2023-01-26T21:24:29.758Z,42.97
2023-01-26T21:26:58.677Z,34.40
2023-01-26T21:29:27.315Z,43.97
2023-01-26T21:31:57.511Z,33.47
2023-01-26T21:34:26.009Z,52.07
2023-01-26T21:36:54.720Z,39.60
2023-01-26T21:39:23.161Z,41.93
2023-01-26T21:41:57.578Z,43.43
2023-01-26T21:44:27.280Z,41.37
2023-01-26T21:46:59.883Z,40.73
2023-01-26T21:49:29.570Z,45.33
2023-01-26T21:52:16.194Z,47.43
2023-01-26T21:54:44.618Z,40.93
2023-01-26T21:57:30.867Z,43.07
2023-01-26T21:59:59.828Z,45.53
2023-01-26T22:02:30.051Z,48.17
2023-01-26T22:04:58.583Z,47.63
2023-01-26T22:07:28.258Z,38.73
2023-01-26T22:09:56.872Z,48.33
2023-01-26T22:12:26.513Z,52.03
2023-01-26T22:14:56.308Z,43.23
2023-01-26T22:17:25.093Z,42.83
2023-01-26T22:19:56.202Z,46.63
2023-01-26T22:22:27.976Z,41.43
2023-01-26T22:24:56.393Z,43.50
2023-01-26T22:27:25.390Z,59.20
2023-01-26T22:29:53.905Z,46.30
2023-01-26T22:32:22.581Z,57.40
2023-01-26T22:34:51.145Z,60.30
2023-01-26T22:37:24.589Z,48.80
2023-01-26T22:39:53.149Z,47.47
2023-01-26T22:42:22.779Z,49.20
2023-01-26T22:44:51.201Z,55.67
2023-01-26T22:47:19.888Z,52.67
2023-01-26T22:49:48.227Z,48.70
2023-01-26T22:52:16.862Z,50.67
2023-01-26T22:54:46.657Z,45.93
2023-01-26T22:57:15.431Z,46.37
2023-01-26T22:59:43.861Z,49.50
2023-01-26T23:02:12.630Z,53.03
2023-01-26T23:04:41.113Z,50.87
2023-01-26T23:07:10.034Z,48.70
2023-01-26T23:09:38.470Z,41.87
2023-01-26T23:12:09.826Z,43.43
2023-01-26T23:14:38.410Z,40.90
2023-01-26T23:17:08.142Z,43.83
2023-01-26T23:19:36.550Z,45.50
2023-01-26T23:22:05.877Z,46.10
2023-01-26T23:24:34.273Z,50.43
2023-01-26T23:27:02.869Z,49.07
2023-01-26T23:29:32.648Z,48.00
2023-01-26T23:32:01.276Z,39.70
2023-01-26T23:34:29.665Z,43.27
2023-01-26T23:36:58.237Z,50.67
2023-01-26T23:39:26.540Z,47.97
2023-01-26T23:41:55.177Z,38.10
2023-01-26T23:44:23.508Z,40.63
2023-01-26T23:46:53.676Z,46.50
2023-01-26T23:49:22.063Z,37.60
2023-01-26T23:51:50.761Z,41.50
2023-01-26T23:54:19.146Z,40.87
2023-01-26T23:56:47.739Z,39.70
2023-01-26T23:59:16.188Z,42.97
